createdAt,value
2017-02-13T00:01:39.634Z,0
2017-02-13T00:03:41.993Z,0
2017-02-13T00:05:39.356Z,0
2017-02-13T00:07:46.791Z,0
2017-02-13T00:09:44.371Z,0
2017-02-13T00:11:46.695Z,0
2017-02-13T00:13:34.182Z,0
2017-02-13T00:15:31.664Z,0
2017-02-13T00:17:29.245Z,0
2017-02-13T00:19:36.612Z,0
2017-02-13T00:21:38.995Z,0
2017-02-13T00:23:26.473Z,0
2017-02-13T00:25:23.951Z,0
2017-02-13T00:27:21.317Z,0
2017-02-13T00:29:18.626Z,0
2017-02-13T00:31:30.977Z,0
2017-02-13T00:33:28.383Z,0
2017-02-13T00:35:35.785Z,0
2017-02-13T00:37:33.172Z,0
2017-02-13T00:39:25.511Z,0
2017-02-13T00:41:28.153Z,0
2017-02-13T00:43:25.718Z,0
2017-02-13T00:45:38.193Z,0
2017-02-13T00:47:30.524Z,0
2017-02-13T00:49:37.911Z,0
2017-02-13T00:51:25.342Z,0
2017-02-13T00:53:37.689Z,0
2017-02-13T00:55:35.184Z,0
2017-02-13T00:57:37.596Z,0
2017-02-13T00:59:40.179Z,0
2017-02-13T01:01:22.584Z,0
2017-02-13T01:03:14.920Z,0
2017-02-13T01:05:17.371Z,0
2017-02-13T01:07:14.810Z,0
2017-02-13T01:08:57.258Z,0
2017-02-13T01:10:49.699Z,0
2017-02-13T01:12:42.072Z,0
2017-02-13T01:14:39.282Z,0
2017-02-13T01:16:31.734Z,0
2017-02-13T01:18:34.532Z,0
2017-02-13T01:20:26.963Z,0
2017-02-13T01:22:24.203Z,0
2017-02-13T01:24:31.649Z,0
2017-02-13T01:26:34.249Z,0
2017-02-13T01:28:31.589Z,0
2017-02-13T01:30:44.005Z,0
2017-02-13T01:32:46.444Z,0
2017-02-13T01:34:48.704Z,0
2017-02-13T01:36:51.068Z,0
2017-02-13T01:38:43.506Z,0
2017-02-13T01:40:35.855Z,0
2017-02-13T01:42:33.355Z,0
2017-02-13T01:44:15.805Z,0
2017-02-13T01:46:23.316Z,0
2017-02-13T01:48:20.521Z,0
2017-02-13T01:50:13.043Z,0
2017-02-13T01:52:06.160Z,0
2017-02-13T01:54:03.477Z,0
2017-02-13T01:55:50.789Z,0
2017-02-13T01:57:48.086Z,0
2017-02-13T01:59:55.484Z,0
2017-02-13T02:01:53.079Z,0
2017-02-13T02:03:55.524Z,0
2017-02-13T02:05:57.906Z,0
2017-02-13T02:08:05.188Z,0
2017-02-13T02:09:52.657Z,0
2017-02-13T02:11:54.979Z,0
2017-02-13T02:14:07.367Z,0
2017-02-13T02:15:59.657Z,0
2017-02-13T02:18:11.998Z,0
2017-02-13T02:20:14.440Z,0
2017-02-13T02:22:01.770Z,0
2017-02-13T02:23:49.671Z,0
2017-02-13T02:25:52.687Z,0
2017-02-13T02:28:05.141Z,0
2017-02-13T02:30:02.678Z,0
2017-02-13T02:32:09.932Z,0
2017-02-13T02:34:07.341Z,0
2017-02-13T02:35:59.673Z,0
2017-02-13T02:38:01.925Z,0
2017-02-13T02:40:04.091Z,0
2017-02-13T02:42:11.438Z,0
2017-02-13T02:44:18.743Z,0
2017-02-13T02:46:20.992Z,0
2017-02-13T02:48:13.371Z,0
2017-02-13T02:50:15.587Z,0
2017-02-13T02:52:07.886Z,0
2017-02-13T02:54:15.296Z,0
2017-02-13T02:56:17.730Z,0
2017-02-13T02:58:25.473Z,0
2017-02-13T03:00:33.222Z,0
2017-02-13T03:02:30.511Z,0
2017-02-13T03:04:27.787Z,0
2017-02-13T03:06:30.119Z,0
2017-02-13T03:08:17.578Z,0
2017-02-13T03:10:15.019Z,0
2017-02-13T03:12:12.230Z,0
2017-02-13T03:14:19.530Z,0
2017-02-13T03:16:16.834Z,0
2017-02-13T03:18:09.287Z,0
2017-02-13T03:20:01.669Z,0
2017-02-13T03:21:59.074Z,0
2017-02-13T03:23:51.335Z,0
2017-02-13T03:25:58.840Z,0
2017-02-13T03:27:51.075Z,0
2017-02-13T03:29:53.357Z,0
2017-02-13T03:31:50.715Z,0
2017-02-13T03:33:43.835Z,0
2017-02-13T03:35:51.635Z,0
2017-02-13T03:37:44.044Z,0
2017-02-13T03:39:46.304Z,0
2017-02-13T03:41:33.798Z,0
2017-02-13T03:43:31.106Z,0
2017-02-13T03:45:33.542Z,0
2017-02-13T03:47:30.844Z,0
2017-02-13T03:49:33.173Z,0
2017-02-13T03:51:30.505Z,0
2017-02-13T03:53:27.885Z,0
2017-02-13T03:55:20.267Z,0
2017-02-13T03:57:23.469Z,0
2017-02-13T03:59:21.006Z,0
2017-02-13T04:01:08.542Z,0
2017-02-13T04:03:10.766Z,0
2017-02-13T04:05:13.005Z,0
2017-02-13T04:07:05.453Z,0
2017-02-13T04:09:18.296Z,0
2017-02-13T04:11:30.684Z,0
2017-02-13T04:13:17.958Z,0
2017-02-13T04:15:20.203Z,0
2017-02-13T04:17:22.384Z,0
2017-02-13T04:19:24.594Z,0
2017-02-13T04:21:16.934Z,0
2017-02-13T04:23:19.457Z,0
2017-02-13T04:25:21.824Z,0
2017-02-13T04:27:09.251Z,0
2017-02-13T04:29:16.667Z,0
2017-02-13T04:31:19.054Z,0
2017-02-13T04:33:11.312Z,0
2017-02-13T04:35:03.808Z,0
2017-02-13T04:37:06.104Z,0
2017-02-13T04:39:08.549Z,0
2017-02-13T04:41:00.914Z,0
2017-02-13T04:43:08.515Z,0
2017-02-13T04:45:06.319Z,0
2017-02-13T04:46:58.819Z,0
2017-02-13T04:49:01.099Z,0
2017-02-13T04:51:08.377Z,0
2017-02-13T04:53:10.887Z,0
2017-02-13T04:55:08.173Z,0
2017-02-13T04:57:15.374Z,0
2017-02-13T04:59:17.622Z,0
2017-02-13T05:01:15.106Z,0
2017-02-13T05:03:12.370Z,0
2017-02-13T05:05:19.707Z,0
2017-02-13T05:07:12.197Z,0
2017-02-13T05:09:14.511Z,0
2017-02-13T05:11:17.002Z,0
2017-02-13T05:13:09.351Z,0
2017-02-13T05:15:11.741Z,0
2017-02-13T05:17:24.540Z,0
2017-02-13T05:19:21.995Z,0
2017-02-13T05:21:24.244Z,0
2017-02-13T05:23:26.514Z,0
2017-02-13T05:25:23.727Z,0
2017-02-13T05:27:26.194Z,0
2017-02-13T05:29:38.360Z,0
2017-02-13T05:31:25.735Z,0
2017-02-13T05:33:28.124Z,0
2017-02-13T05:35:20.604Z,0
2017-02-13T05:37:27.819Z,0
2017-02-13T05:39:30.029Z,0
2017-02-13T05:41:22.526Z,0
2017-02-13T05:43:19.978Z,0
2017-02-13T05:45:22.439Z,0
2017-02-13T05:47:24.802Z,0
2017-02-13T05:49:07.192Z,0
2017-02-13T05:51:14.443Z,0
2017-02-13T05:53:23.214Z,0
2017-02-13T05:55:20.516Z,0
2017-02-13T05:57:32.769Z,0
2017-02-13T05:59:30.195Z,0
2017-02-13T06:01:12.620Z,0
2017-02-13T06:03:20.037Z,0
2017-02-13T06:05:17.317Z,0
2017-02-13T06:07:09.795Z,0
2017-02-13T06:09:02.250Z,0
2017-02-13T06:11:09.646Z,0
2017-02-13T06:13:12.000Z,0
2017-02-13T06:14:59.391Z,0
2017-02-13T06:17:01.713Z,0
2017-02-13T06:19:04.133Z,0
2017-02-13T06:21:06.578Z,0
2017-02-13T06:23:13.873Z,0
2017-02-13T06:25:11.180Z,0
2017-02-13T06:27:13.488Z,0
2017-02-13T06:29:21.188Z,0
2017-02-13T06:31:19.762Z,5
2017-02-13T06:33:17.041Z,5
2017-02-13T06:35:24.452Z,5
2017-02-13T06:37:12.730Z,5
2017-02-13T06:39:25.108Z,5
2017-02-13T06:41:32.469Z,10
2017-02-13T06:43:29.803Z,10
2017-02-13T06:45:32.188Z,10
2017-02-13T06:47:39.605Z,10
2017-02-13T06:49:51.905Z,15
2017-02-13T06:51:59.178Z,15
2017-02-13T06:54:06.432Z,15
2017-02-13T06:56:13.753Z,15
2017-02-13T06:58:21.314Z,15
2017-02-13T07:00:28.853Z,20
2017-02-13T07:02:31.216Z,20
2017-02-13T07:04:33.760Z,20
2017-02-13T07:06:31.093Z,25
2017-02-13T07:08:30.291Z,25
2017-02-13T07:10:32.611Z,25
2017-02-13T07:12:29.989Z,25
2017-02-13T07:14:27.601Z,30
2017-02-13T07:16:30.086Z,35
2017-02-13T07:18:12.678Z,35
2017-02-13T07:20:10.010Z,35
2017-02-13T07:22:02.340Z,35
2017-02-13T07:24:09.950Z,40
2017-02-13T07:26:12.787Z,40
2017-02-13T07:28:15.274Z,45
2017-02-13T07:30:18.284Z,45
2017-02-13T07:32:10.958Z,50
2017-02-13T07:34:18.910Z,50
2017-02-13T07:36:16.545Z,50
2017-02-13T07:38:19.125Z,55
2017-02-13T07:40:26.915Z,60
2017-02-13T07:42:19.419Z,60
2017-02-13T07:44:22.217Z,60
2017-02-13T07:46:29.784Z,65
2017-02-13T07:48:27.170Z,75
2017-02-13T07:50:39.532Z,85
2017-02-13T07:52:31.817Z,80
2017-02-13T07:54:24.080Z,80
2017-02-13T07:56:21.489Z,85
2017-02-13T07:58:13.840Z,90
2017-02-13T08:00:01.120Z,95
2017-02-13T08:01:56.960Z,95
2017-02-13T08:03:59.175Z,95
2017-02-13T08:06:01.434Z,95
2017-02-13T08:08:03.760Z,95
2017-02-13T08:10:11.095Z,100
2017-02-13T08:12:13.361Z,105
2017-02-13T08:14:05.924Z,110
2017-02-13T08:15:53.437Z,115
2017-02-13T08:17:45.762Z,125
2017-02-13T08:19:43.015Z,110
2017-02-13T08:21:50.170Z,125
2017-02-13T08:23:47.458Z,125
2017-02-13T08:25:39.763Z,120
2017-02-13T08:27:38.089Z,115
2017-02-13T08:29:25.663Z,120
2017-02-13T08:31:22.905Z,130
2017-02-13T08:33:15.229Z,130
2017-02-13T08:35:12.516Z,135
2017-02-13T08:37:09.896Z,135
2017-02-13T08:39:07.201Z,125
2017-02-13T08:41:09.572Z,125
2017-02-13T08:43:17.810Z,150
2017-02-13T08:45:25.232Z,150
2017-02-13T08:47:27.433Z,145
2017-02-13T08:49:24.727Z,145
2017-02-13T08:51:27.106Z,135
2017-02-13T08:53:34.329Z,160
2017-02-13T08:55:31.594Z,155
2017-02-13T08:57:33.947Z,160
2017-02-13T08:59:36.213Z,165
2017-02-13T09:01:38.573Z,165
2017-02-13T09:03:21.031Z,170
2017-02-13T09:05:13.274Z,185
2017-02-13T09:07:05.567Z,185
2017-02-13T09:09:02.859Z,185
2017-02-13T09:10:55.109Z,185
2017-02-13T09:12:42.510Z,180
2017-02-13T09:14:39.881Z,185
2017-02-13T09:16:42.073Z,185
2017-02-13T09:18:49.450Z,185
2017-02-13T09:20:41.724Z,190
2017-02-13T09:22:33.942Z,190
2017-02-13T09:24:36.571Z,185
2017-02-13T09:26:40.306Z,200
2017-02-13T09:28:42.772Z,205
2017-02-13T09:30:30.360Z,205
2017-02-13T09:32:37.682Z,205
2017-02-13T09:34:35.029Z,215
2017-02-13T09:36:37.629Z,205
2017-02-13T09:38:45.052Z,210
2017-02-13T09:40:42.319Z,220
2017-02-13T09:42:57.093Z,210
2017-02-13T09:45:18.546Z,225
2017-02-13T09:47:22.029Z,245
2017-02-13T09:49:37.280Z,235
2017-02-13T09:51:56.203Z,230
2017-02-13T09:53:48.601Z,240
2017-02-13T09:55:55.921Z,245
2017-02-13T09:57:48.442Z,255
2017-02-13T09:59:56.001Z,255
2017-02-13T10:01:53.536Z,240
2017-02-13T10:03:56.049Z,250
2017-02-13T10:05:58.336Z,255
2017-02-13T10:08:00.697Z,270
2017-02-13T10:10:13.024Z,280
2017-02-13T10:12:15.440Z,270
2017-02-13T10:14:17.791Z,290
2017-02-13T10:16:25.079Z,295
2017-02-13T10:18:27.516Z,280
2017-02-13T10:20:24.849Z,280
2017-02-13T10:22:17.182Z,280
2017-02-13T10:24:04.763Z,280
2017-02-13T10:26:07.025Z,290
2017-02-13T10:28:04.428Z,290
2017-02-13T10:30:02.668Z,290
2017-02-13T10:31:59.894Z,290
2017-02-13T10:33:57.219Z,295
2017-02-13T10:35:59.575Z,325
2017-02-13T10:37:46.877Z,330
2017-02-13T10:39:39.132Z,320
2017-02-13T10:41:31.360Z,320
2017-02-13T10:43:23.671Z,350
2017-02-13T10:45:16.042Z,360
2017-02-13T10:47:18.311Z,365
2017-02-13T10:49:25.766Z,355
2017-02-13T10:51:23.209Z,380
2017-02-13T10:53:25.457Z,395
2017-02-13T10:55:22.901Z,360
2017-02-13T10:57:15.418Z,350
2017-02-13T10:59:17.638Z,320
2017-02-13T11:01:19.857Z,335
2017-02-13T11:03:22.172Z,315
2017-02-13T11:05:29.466Z,330
2017-02-13T11:07:36.749Z,315
2017-02-13T11:09:29.394Z,320
2017-02-13T11:11:26.771Z,325
2017-02-13T11:13:39.062Z,335
2017-02-13T11:15:46.297Z,330
2017-02-13T11:17:38.593Z,330
2017-02-13T11:19:31.043Z,350
2017-02-13T11:21:28.512Z,370
2017-02-13T11:23:20.749Z,370
2017-02-13T11:25:23.104Z,375
2017-02-13T11:27:25.451Z,335
2017-02-13T11:29:32.652Z,325
2017-02-13T11:31:35.015Z,290
2017-02-13T11:33:27.433Z,285
2017-02-13T11:35:34.915Z,275
2017-02-13T11:37:37.313Z,275
2017-02-13T11:39:39.609Z,280
2017-02-13T11:41:36.912Z,280
2017-02-13T11:43:39.664Z,310
2017-02-13T11:45:37.020Z,335
2017-02-13T11:47:44.219Z,360
2017-02-13T11:49:46.445Z,345
2017-02-13T11:51:43.702Z,320
2017-02-13T11:53:50.893Z,300
2017-02-13T11:55:48.169Z,290
2017-02-13T11:57:45.574Z,315
2017-02-13T11:59:42.773Z,315
2017-02-13T12:01:35.083Z,295
2017-02-13T12:03:37.681Z,295
2017-02-13T12:05:25.259Z,295
2017-02-13T12:07:32.703Z,305
2017-02-13T12:09:25.120Z,330
2017-02-13T12:11:27.461Z,350
2017-02-13T12:13:19.784Z,345
2017-02-13T12:15:12.136Z,355
2017-02-13T12:17:14.852Z,355
2017-02-13T12:19:02.306Z,380
2017-02-13T12:21:04.478Z,420
2017-02-13T12:23:01.758Z,420
2017-02-13T12:25:09.134Z,425
2017-02-13T12:27:01.588Z,395
2017-02-13T12:28:58.846Z,385
2017-02-13T12:30:51.431Z,350
2017-02-13T12:32:53.616Z,350
2017-02-13T12:34:50.872Z,340
2017-02-13T12:36:38.324Z,345
2017-02-13T12:38:35.836Z,335
2017-02-13T12:40:33.094Z,350
2017-02-13T12:42:25.642Z,335
2017-02-13T12:45:31.874Z,365
2017-02-13T12:45:50.666Z,365
2017-02-13T12:47:38.009Z,360
2017-02-13T12:49:35.283Z,375
2017-02-13T12:51:42.730Z,370
2017-02-13T12:53:30.635Z,355
2017-02-13T12:55:28.028Z,360
2017-02-13T12:57:35.231Z,525
2017-02-13T12:59:27.572Z,530
2017-02-13T13:01:34.831Z,460
2017-02-13T13:03:27.218Z,655
2017-02-13T13:05:24.622Z,640
2017-02-13T13:07:26.928Z,570
2017-02-13T13:09:19.477Z,510
2017-02-13T13:11:11.948Z,520
2017-02-13T13:13:19.153Z,520
2017-02-13T13:15:22.685Z,535
2017-02-13T13:17:25.639Z,560
2017-02-13T13:19:29.390Z,520
2017-02-13T13:21:31.881Z,545
2017-02-13T13:23:19.337Z,585
2017-02-13T13:25:26.890Z,545
2017-02-13T13:27:25.086Z,655
2017-02-13T13:29:27.368Z,715
2017-02-13T13:31:29.748Z,625
2017-02-13T13:33:27.303Z,625
2017-02-13T13:35:34.686Z,590
2017-02-13T13:37:27.065Z,545
2017-02-13T13:39:24.712Z,610
2017-02-13T13:41:27.278Z,745
2017-02-13T13:43:24.810Z,620
2017-02-13T13:45:27.774Z,700
2017-02-13T13:47:20.243Z,565
2017-02-13T13:49:07.713Z,660
2017-02-13T13:51:10.147Z,855
2017-02-13T13:53:17.632Z,915
2017-02-13T13:55:15.031Z,870
2017-02-13T13:57:07.316Z,1265
2017-02-13T13:58:59.752Z,1280
2017-02-13T14:00:57.042Z,1015
2017-02-13T14:02:49.572Z,1225
2017-02-13T14:04:52.075Z,1045
2017-02-13T14:06:44.430Z,1190
2017-02-13T14:08:51.618Z,670
2017-02-13T14:10:54.147Z,600
2017-02-13T14:12:56.408Z,635
2017-02-13T14:14:43.770Z,675
2017-02-13T14:16:46.035Z,580
2017-02-13T14:18:43.501Z,600
2017-02-13T14:20:40.760Z,1085
2017-02-13T14:22:43.027Z,1070
2017-02-13T14:24:30.363Z,1055
2017-02-13T14:26:37.588Z,965
2017-02-13T14:28:40.210Z,980
2017-02-13T14:30:42.501Z,970
2017-02-13T14:32:34.761Z,925
2017-02-13T14:34:27.077Z,950
2017-02-13T14:36:24.609Z,940
2017-02-13T14:38:27.045Z,850
2017-02-13T14:40:24.317Z,830
2017-02-13T14:42:21.795Z,855
2017-02-13T14:44:24.159Z,855
2017-02-13T14:46:26.456Z,805
2017-02-13T14:48:23.906Z,810
2017-02-13T14:50:16.375Z,745
2017-02-13T14:52:08.662Z,730
2017-02-13T14:54:15.956Z,695
2017-02-13T14:56:18.448Z,660
2017-02-13T14:58:10.710Z,660
2017-02-13T15:00:13.019Z,635
2017-02-13T15:02:15.372Z,595
2017-02-13T15:04:28.018Z,590
2017-02-13T15:06:15.298Z,555
2017-02-13T15:08:07.588Z,525
2017-02-13T15:10:05.099Z,485
2017-02-13T15:12:02.345Z,460
2017-02-13T15:13:44.760Z,440
2017-02-13T15:15:37.738Z,420
2017-02-13T15:17:35.141Z,400
2017-02-13T15:19:32.496Z,385
2017-02-13T15:21:25.075Z,405
2017-02-13T15:23:22.519Z,415
2017-02-13T15:25:19.891Z,385
2017-02-13T15:27:12.228Z,360
2017-02-13T15:29:09.604Z,340
2017-02-13T15:31:06.956Z,320
2017-02-13T15:33:04.467Z,310
2017-02-13T15:35:01.707Z,295
2017-02-13T15:37:04.986Z,285
2017-02-13T15:39:02.303Z,270
2017-02-13T15:40:49.617Z,260
2017-02-13T15:42:46.986Z,245
2017-02-13T15:44:39.366Z,240
2017-02-13T15:46:41.805Z,220
2017-02-13T15:48:39.364Z,210
2017-02-13T15:50:37.104Z,195
2017-02-13T15:52:44.827Z,180
2017-02-13T15:54:42.089Z,165
2017-02-13T15:56:44.403Z,155
2017-02-13T15:58:36.747Z,145
2017-02-13T16:00:34.026Z,130
2017-02-13T16:02:16.423Z,125
2017-02-13T16:04:18.730Z,115
2017-02-13T16:06:21.076Z,105
2017-02-13T16:08:23.745Z,95
2017-02-13T16:10:21.206Z,85
2017-02-13T16:12:28.694Z,75
2017-02-13T16:14:31.207Z,65
2017-02-13T16:16:28.576Z,60
2017-02-13T16:18:21.008Z,55
2017-02-13T16:20:13.383Z,50
2017-02-13T16:22:05.728Z,40
2017-02-13T16:24:08.161Z,35
2017-02-13T16:26:00.607Z,30
2017-02-13T16:27:52.979Z,25
2017-02-13T16:29:55.294Z,20
2017-02-13T16:31:47.617Z,20
2017-02-13T16:33:49.848Z,15
2017-02-13T16:35:42.098Z,15
2017-02-13T16:37:34.387Z,10
2017-02-13T16:39:31.747Z,10
2017-02-13T16:41:29.188Z,5
2017-02-13T16:43:31.421Z,5
2017-02-13T16:45:23.840Z,5
2017-02-13T16:47:26.132Z,0
2017-02-13T16:49:23.660Z,0
2017-02-13T16:51:16.184Z,0
2017-02-13T16:53:28.360Z,0
2017-02-13T16:55:30.718Z,0
2017-02-13T16:57:38.048Z,0
2017-02-13T16:59:35.323Z,0
2017-02-13T17:01:32.879Z,0
2017-02-13T17:03:30.451Z,0
2017-02-13T17:05:22.986Z,0
2017-02-13T17:07:15.470Z,0
2017-02-13T17:09:12.948Z,0
2017-02-13T17:11:11.331Z,0
2017-02-13T17:13:08.791Z,0
2017-02-13T17:15:06.198Z,0
2017-02-13T17:16:58.735Z,0
2017-02-13T17:18:56.292Z,0
2017-02-13T17:20:53.753Z,0
2017-02-13T17:22:56.081Z,0
2017-02-13T17:24:58.504Z,0
2017-02-13T17:27:00.771Z,0
2017-02-13T17:29:08.138Z,0
2017-02-13T17:31:11.297Z,0
2017-02-13T17:33:18.684Z,0
2017-02-13T17:35:11.100Z,0
2017-02-13T17:37:13.308Z,0
2017-02-13T17:38:55.928Z,0
2017-02-13T17:40:48.251Z,0
2017-02-13T17:42:45.715Z,0
2017-02-13T17:44:42.992Z,0
2017-02-13T17:46:45.489Z,0
2017-02-13T17:48:37.851Z,0
2017-02-13T17:50:35.333Z,0
2017-02-13T17:52:47.689Z,0
2017-02-13T17:54:55.161Z,0
2017-02-13T17:56:52.624Z,0
2017-02-13T17:59:00.073Z,0
2017-02-13T18:00:52.680Z,0
2017-02-13T18:02:55.046Z,0
2017-02-13T18:05:02.557Z,0
2017-02-13T18:06:55.002Z,0
2017-02-13T18:08:57.329Z,0
2017-02-13T18:10:54.623Z,0
2017-02-13T18:12:46.959Z,0
2017-02-13T18:14:54.577Z,0
2017-02-13T18:17:06.810Z,0
2017-02-13T18:19:09.257Z,0
2017-02-13T18:21:16.678Z,0
2017-02-13T18:23:19.212Z,0
2017-02-13T18:25:16.713Z,0
2017-02-13T18:27:14.132Z,0
2017-02-13T18:29:16.675Z,0
2017-02-13T18:31:14.526Z,0
2017-02-13T18:33:17.325Z,0
2017-02-13T18:35:14.647Z,0
2017-02-13T18:37:16.934Z,0
2017-02-13T18:39:09.425Z,0
2017-02-13T18:40:56.770Z,0
2017-02-13T18:42:54.184Z,0
2017-02-13T18:44:56.527Z,0
2017-02-13T18:46:58.869Z,0
2017-02-13T18:49:01.139Z,0
2017-02-13T18:51:03.600Z,0
2017-02-13T18:53:05.935Z,0
2017-02-13T18:55:13.702Z,0
2017-02-13T18:57:21.357Z,0
2017-02-13T18:59:18.813Z,0
2017-02-13T19:01:21.298Z,0
2017-02-13T19:03:23.645Z,0
2017-02-13T19:05:06.252Z,0
2017-02-13T19:07:08.716Z,0
2017-02-13T19:09:11.137Z,0
2017-02-13T19:11:03.612Z,0
2017-02-13T19:13:06.003Z,0
2017-02-13T19:15:03.287Z,0
2017-02-13T19:16:55.643Z,0
2017-02-13T19:18:42.939Z,0
2017-02-13T19:20:40.333Z,0
2017-02-13T19:22:37.666Z,0
2017-02-13T19:24:40.155Z,0
2017-02-13T19:26:47.592Z,0
2017-02-13T19:28:49.954Z,0
2017-02-13T19:30:47.532Z,0
2017-02-13T19:32:50.030Z,0
2017-02-13T19:34:42.691Z,0
2017-02-13T19:36:55.126Z,0
2017-02-13T19:38:57.709Z,0
2017-02-13T19:40:55.323Z,0
2017-02-13T19:43:02.690Z,0
2017-02-13T19:44:55.145Z,0
2017-02-13T19:46:47.683Z,0
2017-02-13T19:48:50.295Z,0
2017-02-13T19:50:38.059Z,0
2017-02-13T19:52:50.655Z,0
2017-02-13T19:54:48.447Z,0
2017-02-13T19:56:56.457Z,0
2017-02-13T19:58:54.156Z,0
2017-02-13T20:00:56.894Z,0
2017-02-13T20:02:59.626Z,0
2017-02-13T20:05:07.496Z,0
2017-02-13T20:07:04.920Z,0
2017-02-13T20:09:12.669Z,0
2017-02-13T20:11:20.235Z,0
2017-02-13T20:13:27.692Z,0
2017-02-13T20:15:25.194Z,0
2017-02-13T20:17:32.720Z,0
2017-02-13T20:19:35.214Z,0
2017-02-13T20:21:37.653Z,0
2017-02-13T20:23:40.277Z,0
2017-02-13T20:25:38.038Z,0
2017-02-13T20:27:30.563Z,0
2017-02-13T20:29:28.180Z,0
2017-02-13T20:31:30.799Z,0
2017-02-13T20:33:33.118Z,0
2017-02-13T20:35:35.915Z,0
2017-02-13T20:37:38.466Z,0
2017-02-13T20:39:41.031Z,0
2017-02-13T20:41:45.971Z,0
2017-02-13T20:43:38.593Z,0
2017-02-13T20:45:46.420Z,0
2017-02-13T20:47:49.101Z,0
2017-02-13T20:49:51.705Z,0
2017-02-13T20:51:43.973Z,0
2017-02-13T20:53:51.285Z,0
2017-02-13T20:55:48.728Z,0
2017-02-13T20:57:51.186Z,0
2017-02-13T20:59:53.557Z,0
2017-02-13T21:01:45.911Z,0
2017-02-13T21:03:42.220Z,0
2017-02-13T21:05:42.079Z,0
2017-02-13T21:07:44.288Z,0
2017-02-13T21:09:56.662Z,0
2017-02-13T21:11:54.180Z,0
2017-02-13T21:13:41.456Z,0
2017-02-13T21:15:43.670Z,0
2017-02-13T21:17:31.040Z,0
2017-02-13T21:19:23.721Z,0
2017-02-13T21:21:31.474Z,0
2017-02-13T21:23:38.704Z,0
2017-02-13T21:25:41.141Z,0
2017-02-13T21:27:38.366Z,0
2017-02-13T21:29:40.726Z,0
2017-02-13T21:31:38.041Z,0
2017-02-13T21:33:50.326Z,0
2017-02-13T21:35:57.831Z,0
2017-02-13T21:38:10.152Z,0
2017-02-13T21:40:12.537Z,0
2017-02-13T21:42:05.052Z,0
2017-02-13T21:44:02.453Z,0
2017-02-13T21:46:04.787Z,0
2017-02-13T21:47:47.335Z,0
2017-02-13T21:49:49.673Z,0
2017-02-13T21:51:52.073Z,0
2017-02-13T21:53:49.643Z,0
2017-02-13T21:55:37.071Z,0
2017-02-13T21:57:34.379Z,0
2017-02-13T21:59:16.825Z,0
2017-02-13T22:01:14.151Z,0
2017-02-13T22:03:16.577Z,0
2017-02-13T22:05:18.985Z,0
2017-02-13T22:07:21.483Z,0
2017-02-13T22:09:28.912Z,0
2017-02-13T22:11:21.368Z,0
2017-02-13T22:13:13.750Z,0
2017-02-13T22:15:16.054Z,0
2017-02-13T22:17:18.294Z,0
2017-02-13T22:19:20.764Z,0
2017-02-13T22:21:14.718Z,0
2017-02-13T22:24:04.313Z,0
2017-02-13T22:26:53.810Z,0
2017-02-13T22:29:40.635Z,0
2017-02-13T22:32:31.505Z,0
2017-02-13T22:35:17.443Z,0
2017-02-13T22:37:42.684Z,0
2017-02-13T22:39:30.220Z,0
2017-02-13T22:41:27.507Z,0
2017-02-13T22:43:25.635Z,0
2017-02-13T22:45:32.907Z,0
2017-02-13T22:47:30.153Z,0
2017-02-13T22:49:27.394Z,0
2017-02-13T22:51:34.709Z,0
2017-02-13T22:53:36.977Z,0
2017-02-13T22:55:39.273Z,0
2017-02-13T22:57:16.638Z,0
2017-02-13T22:59:03.991Z,0
2017-02-13T23:01:01.745Z,0
2017-02-13T23:03:09.110Z,0
2017-02-13T23:04:56.731Z,0
2017-02-13T23:06:54.114Z,0
2017-02-13T23:08:51.313Z,0
2017-02-13T23:10:48.799Z,0
2017-02-13T23:12:46.196Z,0
2017-02-13T23:14:58.561Z,0
2017-02-13T23:16:40.998Z,0
2017-02-13T23:18:48.378Z,0
2017-02-13T23:20:35.755Z,0
2017-02-13T23:22:33.073Z,0
2017-02-13T23:24:20.495Z,0
2017-02-13T23:26:03.027Z,0
2017-02-13T23:27:55.499Z,0
2017-02-13T23:29:47.891Z,0
2017-02-13T23:32:00.274Z,0
2017-02-13T23:34:02.616Z,0
2017-02-13T23:36:09.871Z,0
2017-02-13T23:38:12.500Z,0
2017-02-13T23:40:14.854Z,0
2017-02-13T23:42:12.165Z,0
2017-02-13T23:44:14.440Z,0
2017-02-13T23:46:01.728Z,0
2017-02-13T23:47:59.020Z,0
2017-02-13T23:49:56.386Z,0
2017-02-13T23:51:48.782Z,0
2017-02-13T23:53:41.051Z,0
2017-02-13T23:55:46.606Z,0
2017-02-13T23:57:57.604Z,0
2017-02-13T23:59:55.012Z,0
